sensor_id;sensor_type;location;lat;lon;timestamp;pressure;altitude;pressure_sealevel;temperature;humidity
74403;BME280;62837;51.082;13.744;2023-08-31T00:00:35;99446.10;;;17.13;66.56
74403;BME280;62837;51.082;13.744;2023-08-31T00:03:05;99449.07;;;17.16;66.35
74403;BME280;62837;51.082;13.744;2023-08-31T00:05:39;99450.13;;;17.18;66.21
74403;BME280;62837;51.082;13.744;2023-08-31T00:08:10;99452.66;;;17.18;65.96
74403;BME280;62837;51.082;13.744;2023-08-31T00:10:42;99464.83;;;17.17;65.93
74403;BME280;62837;51.082;13.744;2023-08-31T00:13:12;99468.70;;;17.15;66.04
74403;BME280;62837;51.082;13.744;2023-08-31T00:15:43;99478.06;;;17.16;66.24
74403;BME280;62837;51.082;13.744;2023-08-31T00:18:15;99484.39;;;17.19;66.31
74403;BME280;62837;51.082;13.744;2023-08-31T00:20:47;99488.83;;;17.22;66.40
74403;BME280;62837;51.082;13.744;2023-08-31T00:23:18;99492.55;;;17.20;66.80
74403;BME280;62837;51.082;13.744;2023-08-31T00:25:49;99497.56;;;17.14;66.77
74403;BME280;62837;51.082;13.744;2023-08-31T00:28:22;99506.70;;;17.08;66.60
74403;BME280;62837;51.082;13.744;2023-08-31T00:30:54;99508.21;;;16.97;66.65
74403;BME280;62837;51.082;13.744;2023-08-31T00:33:27;99508.43;;;16.93;67.17
74403;BME280;62837;51.082;13.744;2023-08-31T00:36:00;99505.36;;;16.95;67.38
74403;BME280;62837;51.082;13.744;2023-08-31T00:38:32;99502.14;;;16.99;67.36
74403;BME280;62837;51.082;13.744;2023-08-31T00:41:03;99506.51;;;17.02;66.61
74403;BME280;62837;51.082;13.744;2023-08-31T00:43:34;99510.31;;;16.99;66.15
74403;BME280;62837;51.082;13.744;2023-08-31T00:46:05;99509.50;;;16.94;65.94
74403;BME280;62837;51.082;13.744;2023-08-31T00:48:36;99509.91;;;16.88;65.62
74403;BME280;62837;51.082;13.744;2023-08-31T00:51:09;99511.39;;;16.81;66.06
74403;BME280;62837;51.082;13.744;2023-08-31T00:53:40;99506.95;;;16.79;66.02
74403;BME280;62837;51.082;13.744;2023-08-31T00:56:11;99505.41;;;16.76;65.73
74403;BME280;62837;51.082;13.744;2023-08-31T00:58:42;99505.49;;;16.73;66.10
74403;BME280;62837;51.082;13.744;2023-08-31T01:01:20;99504.76;;;16.70;66.15
74403;BME280;62837;51.082;13.744;2023-08-31T01:04:03;99507.60;;;16.68;65.96
74403;BME280;62837;51.082;13.744;2023-08-31T01:06:46;99506.85;;;16.67;66.30
74403;BME280;62837;51.082;13.744;2023-08-31T01:09:27;99508.11;;;16.69;65.99
74403;BME280;62837;51.082;13.744;2023-08-31T01:12:02;99507.19;;;16.64;65.64
74403;BME280;62837;51.082;13.744;2023-08-31T01:14:41;99504.99;;;16.59;65.89
74403;BME280;62837;51.082;13.744;2023-08-31T01:17:14;99501.65;;;16.60;65.60
74403;BME280;62837;51.082;13.744;2023-08-31T01:19:49;99500.96;;;16.61;65.93
74403;BME280;62837;51.082;13.744;2023-08-31T01:22:31;99496.22;;;16.62;65.79
74403;BME280;62837;51.082;13.744;2023-08-31T01:25:06;99494.63;;;16.67;65.94
74403;BME280;62837;51.082;13.744;2023-08-31T01:27:39;99476.55;;;16.67;65.87
74403;BME280;62837;51.082;13.744;2023-08-31T01:30:09;99479.21;;;16.78;65.69
74403;BME280;62837;51.082;13.744;2023-08-31T01:32:44;99478.14;;;16.80;65.59
74403;BME280;62837;51.082;13.744;2023-08-31T01:35:18;99479.23;;;16.83;65.41
74403;BME280;62837;51.082;13.744;2023-08-31T01:37:53;99481.32;;;16.84;65.06
74403;BME280;62837;51.082;13.744;2023-08-31T01:40:27;99484.75;;;16.83;65.05
74403;BME280;62837;51.082;13.744;2023-08-31T01:43:03;99487.73;;;16.83;65.09
74403;BME280;62837;51.082;13.744;2023-08-31T01:45:36;99491.95;;;16.84;65.23
74403;BME280;62837;51.082;13.744;2023-08-31T01:48:09;99494.62;;;16.85;65.05
74403;BME280;62837;51.082;13.744;2023-08-31T01:50:39;99496.85;;;16.83;65.21
74403;BME280;62837;51.082;13.744;2023-08-31T01:53:10;99497.19;;;16.82;64.86
74403;BME280;62837;51.082;13.744;2023-08-31T01:55:43;99491.90;;;16.77;64.93
74403;BME280;62837;51.082;13.744;2023-08-31T01:58:15;99506.02;;;16.70;64.92
74403;BME280;62837;51.082;13.744;2023-08-31T02:00:46;99512.18;;;16.63;64.98
74403;BME280;62837;51.082;13.744;2023-08-31T02:03:17;99511.70;;;16.57;64.87
74403;BME280;62837;51.082;13.744;2023-08-31T02:05:48;99514.62;;;16.52;65.02
74403;BME280;62837;51.082;13.744;2023-08-31T02:08:19;99512.09;;;16.49;65.36
74403;BME280;62837;51.082;13.744;2023-08-31T02:10:49;99512.42;;;16.51;65.15
74403;BME280;62837;51.082;13.744;2023-08-31T02:13:25;99516.65;;;16.53;65.41
74403;BME280;62837;51.082;13.744;2023-08-31T02:15:56;99532.41;;;16.57;65.20
74403;BME280;62837;51.082;13.744;2023-08-31T02:18:29;99534.45;;;16.58;65.28
74403;BME280;62837;51.082;13.744;2023-08-31T02:21:00;99536.91;;;16.60;65.29
74403;BME280;62837;51.082;13.744;2023-08-31T02:23:31;99530.48;;;16.61;65.16
74403;BME280;62837;51.082;13.744;2023-08-31T02:26:04;99525.70;;;16.63;65.41
74403;BME280;62837;51.082;13.744;2023-08-31T02:28:34;99532.88;;;16.69;65.65
74403;BME280;62837;51.082;13.744;2023-08-31T02:31:06;99541.71;;;16.74;65.19
74403;BME280;62837;51.082;13.744;2023-08-31T02:33:37;99540.44;;;16.73;64.99
74403;BME280;62837;51.082;13.744;2023-08-31T02:36:08;99544.93;;;16.70;65.04
74403;BME280;62837;51.082;13.744;2023-08-31T02:38:39;99553.23;;;16.70;64.95
74403;BME280;62837;51.082;13.744;2023-08-31T02:41:09;99556.80;;;16.65;65.09
74403;BME280;62837;51.082;13.744;2023-08-31T02:43:40;99554.56;;;16.63;65.25
74403;BME280;62837;51.082;13.744;2023-08-31T02:46:11;99555.09;;;16.58;65.23
74403;BME280;62837;51.082;13.744;2023-08-31T02:48:42;99563.77;;;16.58;65.63
74403;BME280;62837;51.082;13.744;2023-08-31T02:51:13;99566.55;;;16.58;65.75
74403;BME280;62837;51.082;13.744;2023-08-31T02:53:44;99572.72;;;16.56;65.80
74403;BME280;62837;51.082;13.744;2023-08-31T02:56:15;99576.02;;;16.56;65.95
74403;BME280;62837;51.082;13.744;2023-08-31T02:58:46;99578.27;;;16.53;65.94
74403;BME280;62837;51.082;13.744;2023-08-31T03:01:16;99570.44;;;16.46;65.92
74403;BME280;62837;51.082;13.744;2023-08-31T03:03:49;99563.23;;;16.37;66.40
74403;BME280;62837;51.082;13.744;2023-08-31T03:06:21;99568.81;;;16.41;66.21
74403;BME280;62837;51.082;13.744;2023-08-31T03:08:51;99576.66;;;16.40;66.40
74403;BME280;62837;51.082;13.744;2023-08-31T03:11:22;99582.68;;;16.41;66.67
74403;BME280;62837;51.082;13.744;2023-08-31T03:13:53;99582.75;;;16.43;66.11
74403;BME280;62837;51.082;13.744;2023-08-31T03:16:24;99578.39;;;16.44;66.23
74403;BME280;62837;51.082;13.744;2023-08-31T03:18:55;99571.27;;;16.47;66.33
74403;BME280;62837;51.082;13.744;2023-08-31T03:21:26;99574.48;;;16.47;65.68
74403;BME280;62837;51.082;13.744;2023-08-31T03:23:56;99578.59;;;16.43;66.00
74403;BME280;62837;51.082;13.744;2023-08-31T03:26:27;99583.69;;;16.45;66.17
74403;BME280;62837;51.082;13.744;2023-08-31T03:28:58;99585.93;;;16.50;66.10
74403;BME280;62837;51.082;13.744;2023-08-31T03:31:30;99587.48;;;16.55;66.08
74403;BME280;62837;51.082;13.744;2023-08-31T03:34:00;99589.48;;;16.57;65.48
74403;BME280;62837;51.082;13.744;2023-08-31T03:36:30;99595.92;;;16.48;65.81
74403;BME280;62837;51.082;13.744;2023-08-31T03:39:01;99605.48;;;16.49;65.98
74403;BME280;62837;51.082;13.744;2023-08-31T03:41:32;99607.50;;;16.51;65.51
74403;BME280;62837;51.082;13.744;2023-08-31T03:44:05;99615.73;;;16.45;65.24
74403;BME280;62837;51.082;13.744;2023-08-31T03:46:36;99611.15;;;16.35;65.44
74403;BME280;62837;51.082;13.744;2023-08-31T03:49:07;99612.19;;;16.30;65.91
74403;BME280;62837;51.082;13.744;2023-08-31T03:51:38;99609.73;;;16.33;65.93
74403;BME280;62837;51.082;13.744;2023-08-31T03:54:09;99606.98;;;16.28;65.90
74403;BME280;62837;51.082;13.744;2023-08-31T03:56:42;99611.56;;;16.29;66.16
74403;BME280;62837;51.082;13.744;2023-08-31T03:59:12;99617.40;;;16.33;66.20
74403;BME280;62837;51.082;13.744;2023-08-31T04:01:43;99618.09;;;16.34;65.76
74403;BME280;62837;51.082;13.744;2023-08-31T04:04:14;99613.69;;;16.35;65.92
74403;BME280;62837;51.082;13.744;2023-08-31T04:06:45;99611.23;;;16.38;65.79
74403;BME280;62837;51.082;13.744;2023-08-31T04:09:16;99609.70;;;16.41;65.66
74403;BME280;62837;51.082;13.744;2023-08-31T04:11:48;99607.88;;;16.43;65.56
74403;BME280;62837;51.082;13.744;2023-08-31T04:14:19;99609.84;;;16.43;65.52
74403;BME280;62837;51.082;13.744;2023-08-31T04:16:50;99610.04;;;16.39;65.40
74403;BME280;62837;51.082;13.744;2023-08-31T04:19:21;99614.52;;;16.37;65.48
74403;BME280;62837;51.082;13.744;2023-08-31T04:21:51;99619.83;;;16.38;65.37
74403;BME280;62837;51.082;13.744;2023-08-31T04:24:22;99621.98;;;16.39;65.29
74403;BME280;62837;51.082;13.744;2023-08-31T04:26:53;99617.19;;;16.37;65.24
74403;BME280;62837;51.082;13.744;2023-08-31T04:29:25;99617.66;;;16.33;65.27
74403;BME280;62837;51.082;13.744;2023-08-31T04:31:56;99622.74;;;16.28;65.45
74403;BME280;62837;51.082;13.744;2023-08-31T04:34:28;99631.07;;;16.23;65.67
74403;BME280;62837;51.082;13.744;2023-08-31T04:36:59;99634.09;;;16.24;65.81
74403;BME280;62837;51.082;13.744;2023-08-31T04:39:30;99635.77;;;16.26;65.86
74403;BME280;62837;51.082;13.744;2023-08-31T04:42:01;99638.31;;;16.22;65.66
74403;BME280;62837;51.082;13.744;2023-08-31T04:44:32;99641.16;;;16.16;65.91
74403;BME280;62837;51.082;13.744;2023-08-31T04:47:03;99638.41;;;16.14;66.20
74403;BME280;62837;51.082;13.744;2023-08-31T04:49:34;99646.08;;;16.11;65.95
74403;BME280;62837;51.082;13.744;2023-08-31T04:52:06;99650.02;;;16.06;66.04
74403;BME280;62837;51.082;13.744;2023-08-31T04:54:37;99650.08;;;15.99;66.08
74403;BME280;62837;51.082;13.744;2023-08-31T04:57:08;99655.06;;;15.94;66.43
74403;BME280;62837;51.082;13.744;2023-08-31T04:59:40;99658.66;;;15.97;66.60
74403;BME280;62837;51.082;13.744;2023-08-31T05:02:10;99665.08;;;15.98;66.20
74403;BME280;62837;51.082;13.744;2023-08-31T05:04:41;99674.06;;;15.95;66.37
74403;BME280;62837;51.082;13.744;2023-08-31T05:07:12;99676.53;;;15.91;66.49
74403;BME280;62837;51.082;13.744;2023-08-31T05:09:43;99679.02;;;15.84;66.60
74403;BME280;62837;51.082;13.744;2023-08-31T05:12:14;99682.03;;;15.86;67.16
74403;BME280;62837;51.082;13.744;2023-08-31T05:14:45;99687.88;;;15.92;67.12
74403;BME280;62837;51.082;13.744;2023-08-31T05:17:15;99691.55;;;15.97;66.90
74403;BME280;62837;51.082;13.744;2023-08-31T05:19:47;99694.40;;;15.93;66.96
74403;BME280;62837;51.082;13.744;2023-08-31T05:22:19;99697.73;;;15.93;67.25
74403;BME280;62837;51.082;13.744;2023-08-31T05:24:51;99705.27;;;15.93;67.20
74403;BME280;62837;51.082;13.744;2023-08-31T05:27:22;99714.08;;;15.93;67.22
74403;BME280;62837;51.082;13.744;2023-08-31T05:29:54;99712.25;;;15.93;67.29
74403;BME280;62837;51.082;13.744;2023-08-31T05:32:27;99711.92;;;15.98;67.52
74403;BME280;62837;51.082;13.744;2023-08-31T05:34:58;99708.73;;;16.02;67.25
74403;BME280;62837;51.082;13.744;2023-08-31T05:37:33;99709.94;;;16.03;67.18
74403;BME280;62837;51.082;13.744;2023-08-31T05:40:07;99714.21;;;16.01;67.15
74403;BME280;62837;51.082;13.744;2023-08-31T05:42:40;99720.35;;;15.96;67.30
74403;BME280;62837;51.082;13.744;2023-08-31T05:45:12;99722.83;;;16.02;67.53
74403;BME280;62837;51.082;13.744;2023-08-31T05:47:43;99724.92;;;16.08;67.17
74403;BME280;62837;51.082;13.744;2023-08-31T05:50:14;99724.84;;;16.09;67.24
74403;BME280;62837;51.082;13.744;2023-08-31T05:52:45;99727.48;;;16.19;67.81
74403;BME280;62837;51.082;13.744;2023-08-31T05:55:16;99726.44;;;16.38;67.26
74403;BME280;62837;51.082;13.744;2023-08-31T05:57:46;99728.20;;;16.50;66.52
74403;BME280;62837;51.082;13.744;2023-08-31T06:00:19;99725.33;;;16.56;66.14
74403;BME280;62837;51.082;13.744;2023-08-31T06:02:48;99714.55;;;16.59;66.38
74403;BME280;62837;51.082;13.744;2023-08-31T06:05:19;99721.80;;;16.81;65.89
74403;BME280;62837;51.082;13.744;2023-08-31T06:07:49;99720.95;;;16.97;65.64
74403;BME280;62837;51.082;13.744;2023-08-31T06:10:22;99719.84;;;17.13;65.15
74403;BME280;62837;51.082;13.744;2023-08-31T06:12:53;99718.39;;;17.30;64.91
74403;BME280;62837;51.082;13.744;2023-08-31T06:15:23;99720.25;;;17.59;64.29
74403;BME280;62837;51.082;13.744;2023-08-31T06:17:54;99723.27;;;17.93;63.46
74403;BME280;62837;51.082;13.744;2023-08-31T06:20:27;99722.40;;;18.16;62.50
74403;BME280;62837;51.082;13.744;2023-08-31T06:22:58;99720.09;;;18.34;62.00
74403;BME280;62837;51.082;13.744;2023-08-31T06:25:29;99721.63;;;18.62;61.36
74403;BME280;62837;51.082;13.744;2023-08-31T06:28:01;99722.80;;;18.84;60.88
74403;BME280;62837;51.082;13.744;2023-08-31T06:30:35;99729.61;;;19.00;60.07
74403;BME280;62837;51.082;13.744;2023-08-31T06:33:06;99730.77;;;19.06;60.15
74403;BME280;62837;51.082;13.744;2023-08-31T06:35:37;99733.88;;;19.26;59.90
74403;BME280;62837;51.082;13.744;2023-08-31T06:38:07;99736.77;;;19.28;59.50
74403;BME280;62837;51.082;13.744;2023-08-31T06:40:38;99737.63;;;19.22;58.92
74403;BME280;62837;51.082;13.744;2023-08-31T06:43:09;99740.49;;;19.01;58.89
74403;BME280;62837;51.082;13.744;2023-08-31T06:45:40;99743.09;;;18.75;59.30
74403;BME280;62837;51.082;13.744;2023-08-31T06:48:12;99746.64;;;18.51;59.32
74403;BME280;62837;51.082;13.744;2023-08-31T06:50:42;99754.08;;;18.26;59.94
74403;BME280;62837;51.082;13.744;2023-08-31T06:53:13;99756.16;;;18.05;60.39
74403;BME280;62837;51.082;13.744;2023-08-31T06:55:45;99757.72;;;17.87;60.69
74403;BME280;62837;51.082;13.744;2023-08-31T06:58:15;99759.77;;;17.70;60.88
74403;BME280;62837;51.082;13.744;2023-08-31T07:00:47;99759.92;;;17.62;61.35
74403;BME280;62837;51.082;13.744;2023-08-31T07:03:18;99763.60;;;17.60;61.02
74403;BME280;62837;51.082;13.744;2023-08-31T07:05:49;99766.27;;;17.55;61.53
74403;BME280;62837;51.082;13.744;2023-08-31T07:08:19;99760.95;;;17.54;61.79
74403;BME280;62837;51.082;13.744;2023-08-31T07:10:52;99765.27;;;17.57;61.83
74403;BME280;62837;51.082;13.744;2023-08-31T07:13:23;99770.81;;;17.80;62.34
74403;BME280;62837;51.082;13.744;2023-08-31T07:15:58;99769.25;;;17.99;61.86
74403;BME280;62837;51.082;13.744;2023-08-31T07:18:29;99774.30;;;18.07;60.52
74403;BME280;62837;51.082;13.744;2023-08-31T07:21:01;99775.61;;;18.06;60.45
74403;BME280;62837;51.082;13.744;2023-08-31T07:23:34;99781.58;;;17.98;60.72
74403;BME280;62837;51.082;13.744;2023-08-31T07:26:05;99782.26;;;17.85;61.00
74403;BME280;62837;51.082;13.744;2023-08-31T07:28:35;99783.90;;;17.70;60.81
74403;BME280;62837;51.082;13.744;2023-08-31T07:31:07;99792.60;;;17.54;61.05
74403;BME280;62837;51.082;13.744;2023-08-31T07:33:38;99796.64;;;17.46;61.27
74403;BME280;62837;51.082;13.744;2023-08-31T07:36:09;99798.27;;;17.48;61.63
74403;BME280;62837;51.082;13.744;2023-08-31T07:38:40;99805.80;;;17.51;61.89
74403;BME280;62837;51.082;13.744;2023-08-31T07:41:11;99808.32;;;17.54;61.74
74403;BME280;62837;51.082;13.744;2023-08-31T07:43:42;99809.85;;;17.56;61.71
74403;BME280;62837;51.082;13.744;2023-08-31T07:46:32;99814.94;;;17.68;62.03
74403;BME280;62837;51.082;13.744;2023-08-31T07:49:03;99816.44;;;17.80;62.52
74403;BME280;62837;51.082;13.744;2023-08-31T07:51:34;99816.66;;;17.86;62.13
74403;BME280;62837;51.082;13.744;2023-08-31T07:54:05;99815.74;;;17.98;61.81
74403;BME280;62837;51.082;13.744;2023-08-31T07:56:36;99812.35;;;18.10;61.91
74403;BME280;62837;51.082;13.744;2023-08-31T07:59:07;99812.16;;;18.26;61.42
74403;BME280;62837;51.082;13.744;2023-08-31T08:01:38;99811.75;;;18.48;61.41
74403;BME280;62837;51.082;13.744;2023-08-31T08:04:11;99806.48;;;18.78;60.19
74403;BME280;62837;51.082;13.744;2023-08-31T08:06:42;99806.45;;;18.96;59.21
74403;BME280;62837;51.082;13.744;2023-08-31T08:09:13;99811.10;;;19.25;57.61
74403;BME280;62837;51.082;13.744;2023-08-31T08:11:44;99807.28;;;19.57;57.02
74403;BME280;62837;51.082;13.744;2023-08-31T08:14:14;99809.52;;;19.78;55.96
74403;BME280;62837;51.082;13.744;2023-08-31T08:16:47;99807.42;;;19.98;55.21
74403;BME280;62837;51.082;13.744;2023-08-31T08:19:23;99812.52;;;20.15;54.77
74403;BME280;62837;51.082;13.744;2023-08-31T08:21:54;99815.98;;;20.35;53.92
74403;BME280;62837;51.082;13.744;2023-08-31T08:24:25;99811.98;;;20.45;53.54
74403;BME280;62837;51.082;13.744;2023-08-31T08:26:55;99814.11;;;20.50;52.73
74403;BME280;62837;51.082;13.744;2023-08-31T08:29:26;99815.02;;;20.59;53.18
74403;BME280;62837;51.082;13.744;2023-08-31T08:31:57;99810.64;;;20.86;53.69
74403;BME280;62837;51.082;13.744;2023-08-31T08:34:28;99815.91;;;21.15;53.10
74403;BME280;62837;51.082;13.744;2023-08-31T08:36:59;99821.02;;;21.32;51.67
74403;BME280;62837;51.082;13.744;2023-08-31T08:39:30;99818.80;;;21.24;50.03
74403;BME280;62837;51.082;13.744;2023-08-31T08:42:00;99824.86;;;21.26;50.67
74403;BME280;62837;51.082;13.744;2023-08-31T08:44:34;99827.05;;;21.38;50.63
74403;BME280;62837;51.082;13.744;2023-08-31T08:47:07;99824.55;;;21.51;50.24
74403;BME280;62837;51.082;13.744;2023-08-31T08:49:38;99830.98;;;21.61;49.78
74403;BME280;62837;51.082;13.744;2023-08-31T08:52:10;99825.43;;;21.71;49.21
74403;BME280;62837;51.082;13.744;2023-08-31T08:54:42;99830.33;;;21.83;49.27
74403;BME280;62837;51.082;13.744;2023-08-31T08:57:13;99830.00;;;21.96;49.50
74403;BME280;62837;51.082;13.744;2023-08-31T08:59:44;99830.00;;;22.03;48.51
74403;BME280;62837;51.082;13.744;2023-08-31T09:02:15;99827.42;;;22.10;48.91
74403;BME280;62837;51.082;13.744;2023-08-31T09:04:46;99828.85;;;22.21;48.61
74403;BME280;62837;51.082;13.744;2023-08-31T09:07:17;99827.91;;;22.22;49.11
74403;BME280;62837;51.082;13.744;2023-08-31T09:09:52;99825.52;;;22.17;48.89
74403;BME280;62837;51.082;13.744;2023-08-31T09:12:24;99825.59;;;22.25;48.65
74403;BME280;62837;51.082;13.744;2023-08-31T09:15:02;99820.65;;;22.40;48.20
74403;BME280;62837;51.082;13.744;2023-08-31T09:17:42;99827.58;;;22.39;46.63
74403;BME280;62837;51.082;13.744;2023-08-31T09:20:14;99835.89;;;22.10;46.66
74403;BME280;62837;51.082;13.744;2023-08-31T09:22:45;99832.34;;;21.76;46.46
74403;BME280;62837;51.082;13.744;2023-08-31T09:25:16;99836.23;;;21.53;46.76
74403;BME280;62837;51.082;13.744;2023-08-31T09:27:49;99837.64;;;21.44;46.97
74403;BME280;62837;51.082;13.744;2023-08-31T09:30:20;99843.77;;;21.38;48.23
74403;BME280;62837;51.082;13.744;2023-08-31T09:32:54;99842.97;;;21.21;47.91
74403;BME280;62837;51.082;13.744;2023-08-31T09:35:26;99844.15;;;21.02;47.94
74403;BME280;62837;51.082;13.744;2023-08-31T09:37:58;99849.15;;;20.95;48.08
74403;BME280;62837;51.082;13.744;2023-08-31T09:40:29;99851.38;;;21.09;49.39
74403;BME280;62837;51.082;13.744;2023-08-31T09:42:59;99844.05;;;21.33;48.50
74403;BME280;62837;51.082;13.744;2023-08-31T09:45:36;99844.35;;;21.39;48.82
74403;BME280;62837;51.082;13.744;2023-08-31T09:48:18;99846.77;;;21.29;48.07
74403;BME280;62837;51.082;13.744;2023-08-31T09:50:48;99845.52;;;21.13;47.40
74403;BME280;62837;51.082;13.744;2023-08-31T09:53:21;99844.98;;;20.86;47.99
74403;BME280;62837;51.082;13.744;2023-08-31T09:55:58;99844.88;;;20.59;48.01
74403;BME280;62837;51.082;13.744;2023-08-31T09:58:30;99841.66;;;20.31;48.59
74403;BME280;62837;51.082;13.744;2023-08-31T10:01:02;99847.04;;;20.09;49.34
74403;BME280;62837;51.082;13.744;2023-08-31T10:03:42;99849.03;;;20.04;49.41
74403;BME280;62837;51.082;13.744;2023-08-31T10:06:13;99851.89;;;20.07;50.10
74403;BME280;62837;51.082;13.744;2023-08-31T10:08:44;99852.41;;;20.16;50.16
74403;BME280;62837;51.082;13.744;2023-08-31T10:11:16;99852.04;;;20.39;50.35
74403;BME280;62837;51.082;13.744;2023-08-31T10:13:48;99851.17;;;20.65;49.69
74403;BME280;62837;51.082;13.744;2023-08-31T10:16:19;99850.41;;;20.97;49.90
74403;BME280;62837;51.082;13.744;2023-08-31T10:18:50;99845.37;;;21.28;49.83
74403;BME280;62837;51.082;13.744;2023-08-31T10:21:22;99851.61;;;21.59;49.50
74403;BME280;62837;51.082;13.744;2023-08-31T10:23:53;99846.77;;;21.82;48.49
74403;BME280;62837;51.082;13.744;2023-08-31T10:26:28;99845.77;;;21.83;47.61
74403;BME280;62837;51.082;13.744;2023-08-31T10:29:00;99849.94;;;21.70;47.03
74403;BME280;62837;51.082;13.744;2023-08-31T10:31:35;99849.66;;;21.51;47.17
74403;BME280;62837;51.082;13.744;2023-08-31T10:34:07;99848.66;;;21.32;46.38
74403;BME280;62837;51.082;13.744;2023-08-31T10:36:41;99842.70;;;21.14;46.91
74403;BME280;62837;51.082;13.744;2023-08-31T10:39:16;99847.18;;;21.06;47.24
74403;BME280;62837;51.082;13.744;2023-08-31T10:41:55;99845.15;;;21.01;47.28
74403;BME280;62837;51.082;13.744;2023-08-31T10:44:27;99843.88;;;20.91;46.33
74403;BME280;62837;51.082;13.744;2023-08-31T10:47:04;99844.86;;;20.75;46.39
74403;BME280;62837;51.082;13.744;2023-08-31T10:49:36;99844.52;;;20.83;47.35
74403;BME280;62837;51.082;13.744;2023-08-31T10:52:20;99836.88;;;21.00;47.59
74403;BME280;62837;51.082;13.744;2023-08-31T10:55:10;99837.15;;;21.17;46.93
74403;BME280;62837;51.082;13.744;2023-08-31T10:57:41;99836.23;;;21.33;47.72
74403;BME280;62837;51.082;13.744;2023-08-31T11:00:13;99836.66;;;21.56;47.94
74403;BME280;62837;51.082;13.744;2023-08-31T11:02:48;99838.30;;;21.73;47.40
74403;BME280;62837;51.082;13.744;2023-08-31T11:05:19;99831.23;;;21.81;46.37
74403;BME280;62837;51.082;13.744;2023-08-31T11:07:53;99834.20;;;21.70;47.77
74403;BME280;62837;51.082;13.744;2023-08-31T11:10:27;99838.55;;;21.56;46.44
74403;BME280;62837;51.082;13.744;2023-08-31T11:12:58;99860.48;;;21.30;45.77
74403;BME280;62837;51.082;13.744;2023-08-31T11:15:29;99877.98;;;20.95;46.29
74403;BME280;62837;51.082;13.744;2023-08-31T11:18:01;99903.85;;;20.57;47.24
74403;BME280;62837;51.082;13.744;2023-08-31T11:20:33;99906.51;;;20.16;48.20
74403;BME280;62837;51.082;13.744;2023-08-31T11:23:05;99919.95;;;19.92;50.41
74403;BME280;62837;51.082;13.744;2023-08-31T11:25:36;99913.50;;;19.75;50.40
74403;BME280;62837;51.082;13.744;2023-08-31T11:28:07;99910.19;;;19.56;51.21
74403;BME280;62837;51.082;13.744;2023-08-31T11:30:38;99912.73;;;19.51;52.73
74403;BME280;62837;51.082;13.744;2023-08-31T11:33:10;99920.66;;;19.47;52.24
74403;BME280;62837;51.082;13.744;2023-08-31T11:35:44;99925.07;;;19.36;52.17
74403;BME280;62837;51.082;13.744;2023-08-31T11:38:16;99926.73;;;19.16;51.60
74403;BME280;62837;51.082;13.744;2023-08-31T11:40:47;99917.94;;;18.99;51.56
74403;BME280;62837;51.082;13.744;2023-08-31T11:43:21;99907.98;;;18.77;51.77
74403;BME280;62837;51.082;13.744;2023-08-31T11:45:52;99912.31;;;18.66;52.23
74403;BME280;62837;51.082;13.744;2023-08-31T11:48:23;99923.98;;;18.58;52.44
74403;BME280;62837;51.082;13.744;2023-08-31T11:50:54;99929.36;;;18.49;53.15
74403;BME280;62837;51.082;13.744;2023-08-31T11:53:26;99935.75;;;18.39;53.46
74403;BME280;62837;51.082;13.744;2023-08-31T11:56:01;99934.69;;;18.25;53.86
74403;BME280;62837;51.082;13.744;2023-08-31T11:58:32;99926.95;;;18.17;54.18
74403;BME280;62837;51.082;13.744;2023-08-31T12:01:02;99921.23;;;18.19;54.55
74403;BME280;62837;51.082;13.744;2023-08-31T12:03:43;99914.02;;;18.26;54.43
74403;BME280;62837;51.082;13.744;2023-08-31T12:06:19;99911.15;;;18.52;54.03
74403;BME280;62837;51.082;13.744;2023-08-31T12:08:50;99908.67;;;18.67;55.46
74403;BME280;62837;51.082;13.744;2023-08-31T12:11:22;99904.52;;;18.86;56.90
74403;BME280;62837;51.082;13.744;2023-08-31T12:13:53;99899.09;;;19.21;56.53
74403;BME280;62837;51.082;13.744;2023-08-31T12:16:23;99895.66;;;19.50;55.54
74403;BME280;62837;51.082;13.744;2023-08-31T12:19:00;99881.69;;;19.69;54.68
74403;BME280;62837;51.082;13.744;2023-08-31T12:21:35;99870.91;;;19.80;53.09
74403;BME280;62837;51.082;13.744;2023-08-31T12:24:07;99861.84;;;19.75;51.88
74403;BME280;62837;51.082;13.744;2023-08-31T12:26:36;99858.30;;;19.83;54.65
74403;BME280;62837;51.082;13.744;2023-08-31T12:29:07;99867.11;;;19.82;53.11
74403;BME280;62837;51.082;13.744;2023-08-31T12:31:38;99872.49;;;19.80;53.44
74403;BME280;62837;51.082;13.744;2023-08-31T12:34:09;99871.80;;;19.77;53.07
74403;BME280;62837;51.082;13.744;2023-08-31T12:36:40;99864.73;;;19.81;53.92
74403;BME280;62837;51.082;13.744;2023-08-31T12:39:11;99861.64;;;20.02;54.73
74403;BME280;62837;51.082;13.744;2023-08-31T12:41:42;99861.39;;;20.24;54.81
74403;BME280;62837;51.082;13.744;2023-08-31T12:44:12;99866.28;;;20.42;53.67
74403;BME280;62837;51.082;13.744;2023-08-31T12:46:43;99869.40;;;20.52;53.01
74403;BME280;62837;51.082;13.744;2023-08-31T12:49:14;99866.39;;;20.55;52.52
74403;BME280;62837;51.082;13.744;2023-08-31T12:51:45;99861.27;;;20.42;52.28
74403;BME280;62837;51.082;13.744;2023-08-31T12:54:15;99871.52;;;20.27;53.05
74403;BME280;62837;51.082;13.744;2023-08-31T12:56:46;99868.15;;;20.10;52.97
74403;BME280;62837;51.082;13.744;2023-08-31T12:59:17;99870.14;;;19.97;53.84
74403;BME280;62837;51.082;13.744;2023-08-31T13:01:48;99869.29;;;19.87;52.31
74403;BME280;62837;51.082;13.744;2023-08-31T13:04:19;99879.86;;;19.73;53.00
74403;BME280;62837;51.082;13.744;2023-08-31T13:06:50;99882.39;;;19.62;52.27
74403;BME280;62837;51.082;13.744;2023-08-31T13:09:21;99890.31;;;19.47;50.45
74403;BME280;62837;51.082;13.744;2023-08-31T13:11:51;99889.71;;;19.30;51.95
74403;BME280;62837;51.082;13.744;2023-08-31T13:14:23;99893.55;;;19.22;52.94